sensor_id;sensor_type;location;lat;lon;timestamp;P1;durP1;ratioP1;P2;durP2;ratioP2
50379;SDS011;37474;59.468;18.040;2024-02-28T00:00:46;5.73;;;4.00;;
50379;SDS011;37474;59.468;18.040;2024-02-28T00:03:15;6.80;;;4.40;;
50379;SDS011;37474;59.468;18.040;2024-02-28T00:05:43;6.50;;;4.68;;
50379;SDS011;37474;59.468;18.040;2024-02-28T00:08:12;8.43;;;4.70;;
50379;SDS011;37474;59.468;18.040;2024-02-28T00:10:40;7.40;;;4.93;;
50379;SDS011;37474;59.468;18.040;2024-02-28T00:13:08;7.53;;;4.80;;
50379;SDS011;37474;59.468;18.040;2024-02-28T00:15:36;7.37;;;5.20;;
50379;SDS011;37474;59.468;18.040;2024-02-28T00:18:05;6.83;;;5.23;;
50379;SDS011;37474;59.468;18.040;2024-02-28T00:20:35;6.80;;;4.97;;
50379;SDS011;37474;59.468;18.040;2024-02-28T00:23:03;6.73;;;5.13;;
50379;SDS011;37474;59.468;18.040;2024-02-28T00:25:31;6.40;;;4.97;;
50379;SDS011;37474;59.468;18.040;2024-02-28T00:27:59;6.43;;;5.03;;
50379;SDS011;37474;59.468;18.040;2024-02-28T00:30:27;7.57;;;5.33;;
50379;SDS011;37474;59.468;18.040;2024-02-28T00:32:56;9.37;;;6.30;;
50379;SDS011;37474;59.468;18.040;2024-02-28T00:35:24;8.73;;;5.90;;
50379;SDS011;37474;59.468;18.040;2024-02-28T00:37:53;8.17;;;5.80;;
50379;SDS011;37474;59.468;18.040;2024-02-28T00:40:21;6.87;;;4.83;;
50379;SDS011;37474;59.468;18.040;2024-02-28T00:42:53;8.70;;;5.40;;
50379;SDS011;37474;59.468;18.040;2024-02-28T00:45:21;6.40;;;4.57;;
50379;SDS011;37474;59.468;18.040;2024-02-28T00:47:50;6.40;;;4.37;;
50379;SDS011;37474;59.468;18.040;2024-02-28T00:50:18;6.70;;;4.67;;
50379;SDS011;37474;59.468;18.040;2024-02-28T00:52:46;5.37;;;4.13;;
50379;SDS011;37474;59.468;18.040;2024-02-28T00:55:15;6.03;;;4.50;;
50379;SDS011;37474;59.468;18.040;2024-02-28T00:57:45;6.43;;;4.43;;
50379;SDS011;37474;59.468;18.040;2024-02-28T01:00:13;6.57;;;4.57;;
50379;SDS011;37474;59.468;18.040;2024-02-28T01:02:42;6.27;;;4.30;;
50379;SDS011;37474;59.468;18.040;2024-02-28T01:05:09;6.20;;;4.30;;
50379;SDS011;37474;59.468;18.040;2024-02-28T01:07:38;6.27;;;4.43;;
50379;SDS011;37474;59.468;18.040;2024-02-28T01:10:07;5.43;;;4.03;;
50379;SDS011;37474;59.468;18.040;2024-02-28T01:12:36;5.57;;;4.17;;
50379;SDS011;37474;59.468;18.040;2024-02-28T01:15:05;5.33;;;3.93;;
50379;SDS011;37474;59.468;18.040;2024-02-28T01:17:33;6.67;;;4.37;;
50379;SDS011;37474;59.468;18.040;2024-02-28T01:20:04;6.10;;;4.07;;
50379;SDS011;37474;59.468;18.040;2024-02-28T01:22:33;7.27;;;3.90;;
50379;SDS011;37474;59.468;18.040;2024-02-28T01:25:04;6.63;;;4.20;;
50379;SDS011;37474;59.468;18.040;2024-02-28T01:27:33;5.87;;;4.10;;
50379;SDS011;37474;59.468;18.040;2024-02-28T01:30:03;6.37;;;4.43;;
50379;SDS011;37474;59.468;18.040;2024-02-28T01:32:32;6.27;;;4.70;;
50379;SDS011;37474;59.468;18.040;2024-02-28T01:35:01;5.77;;;4.00;;
50379;SDS011;37474;59.468;18.040;2024-02-28T01:37:30;6.30;;;4.05;;
50379;SDS011;37474;59.468;18.040;2024-02-28T01:39:58;7.07;;;4.13;;
50379;SDS011;37474;59.468;18.040;2024-02-28T01:42:26;5.97;;;4.20;;
50379;SDS011;37474;59.468;18.040;2024-02-28T01:44:54;5.80;;;3.80;;
50379;SDS011;37474;59.468;18.040;2024-02-28T01:47:24;5.43;;;4.00;;
50379;SDS011;37474;59.468;18.040;2024-02-28T01:49:53;7.17;;;4.43;;
50379;SDS011;37474;59.468;18.040;2024-02-28T01:52:21;5.70;;;4.03;;
50379;SDS011;37474;59.468;18.040;2024-02-28T01:54:49;5.90;;;3.90;;
50379;SDS011;37474;59.468;18.040;2024-02-28T01:57:18;7.10;;;4.60;;
50379;SDS011;37474;59.468;18.040;2024-02-28T01:59:46;5.83;;;4.40;;
50379;SDS011;37474;59.468;18.040;2024-02-28T02:02:15;5.50;;;4.20;;
50379;SDS011;37474;59.468;18.040;2024-02-28T02:04:44;5.67;;;4.03;;
50379;SDS011;37474;59.468;18.040;2024-02-28T02:07:12;5.77;;;4.03;;
50379;SDS011;37474;59.468;18.040;2024-02-28T02:09:40;6.30;;;4.43;;
50379;SDS011;37474;59.468;18.040;2024-02-28T02:12:08;6.57;;;4.50;;
50379;SDS011;37474;59.468;18.040;2024-02-28T02:14:36;6.43;;;3.70;;
50379;SDS011;37474;59.468;18.040;2024-02-28T02:17:04;4.87;;;3.80;;
50379;SDS011;37474;59.468;18.040;2024-02-28T02:19:32;5.00;;;3.83;;
50379;SDS011;37474;59.468;18.040;2024-02-28T02:22:02;4.67;;;3.57;;
50379;SDS011;37474;59.468;18.040;2024-02-28T02:24:34;5.23;;;3.50;;
50379;SDS011;37474;59.468;18.040;2024-02-28T02:27:02;4.32;;;3.33;;
50379;SDS011;37474;59.468;18.040;2024-02-28T02:29:31;5.17;;;3.67;;
50379;SDS011;37474;59.468;18.040;2024-02-28T02:31:59;5.10;;;3.13;;
50379;SDS011;37474;59.468;18.040;2024-02-28T02:34:27;4.90;;;3.33;;
50379;SDS011;37474;59.468;18.040;2024-02-28T02:36:55;5.20;;;3.73;;
50379;SDS011;37474;59.468;18.040;2024-02-28T02:39:23;4.00;;;3.40;;
50379;SDS011;37474;59.468;18.040;2024-02-28T02:41:55;4.40;;;3.20;;
50379;SDS011;37474;59.468;18.040;2024-02-28T02:44:23;3.77;;;3.10;;
50379;SDS011;37474;59.468;18.040;2024-02-28T02:46:51;5.90;;;3.60;;
50379;SDS011;37474;59.468;18.040;2024-02-28T02:49:19;5.53;;;3.53;;
50379;SDS011;37474;59.468;18.040;2024-02-28T02:51:47;4.73;;;3.20;;
50379;SDS011;37474;59.468;18.040;2024-02-28T02:54:16;4.50;;;3.30;;
50379;SDS011;37474;59.468;18.040;2024-02-28T02:56:44;4.53;;;3.13;;
50379;SDS011;37474;59.468;18.040;2024-02-28T02:59:13;3.93;;;3.30;;
50379;SDS011;37474;59.468;18.040;2024-02-28T03:01:41;5.05;;;3.15;;
50379;SDS011;37474;59.468;18.040;2024-02-28T03:04:09;4.30;;;2.93;;
50379;SDS011;37474;59.468;18.040;2024-02-28T03:06:37;3.67;;;2.90;;
50379;SDS011;37474;59.468;18.040;2024-02-28T03:09:05;4.50;;;2.90;;
50379;SDS011;37474;59.468;18.040;2024-02-28T03:11:34;3.17;;;2.80;;
50379;SDS011;37474;59.468;18.040;2024-02-28T03:14:02;3.90;;;2.80;;
50379;SDS011;37474;59.468;18.040;2024-02-28T03:16:32;3.40;;;2.77;;
50379;SDS011;37474;59.468;18.040;2024-02-28T03:19:04;4.70;;;3.10;;
50379;SDS011;37474;59.468;18.040;2024-02-28T03:21:33;4.85;;;3.25;;
50379;SDS011;37474;59.468;18.040;2024-02-28T03:24:01;4.67;;;3.30;;
50379;SDS011;37474;59.468;18.040;2024-02-28T03:26:30;5.60;;;3.30;;
50379;SDS011;37474;59.468;18.040;2024-02-28T03:28:58;4.33;;;3.23;;
50379;SDS011;37474;59.468;18.040;2024-02-28T03:31:26;5.50;;;3.87;;
50379;SDS011;37474;59.468;18.040;2024-02-28T03:33:56;5.10;;;3.73;;
50379;SDS011;37474;59.468;18.040;2024-02-28T03:36:24;4.93;;;3.88;;
50379;SDS011;37474;59.468;18.040;2024-02-28T03:38:54;4.80;;;3.87;;
50379;SDS011;37474;59.468;18.040;2024-02-28T03:41:22;5.17;;;3.73;;
50379;SDS011;37474;59.468;18.040;2024-02-28T03:43:51;6.07;;;4.03;;
50379;SDS011;37474;59.468;18.040;2024-02-28T03:46:19;4.80;;;3.80;;
50379;SDS011;37474;59.468;18.040;2024-02-28T03:48:47;5.33;;;3.80;;
50379;SDS011;37474;59.468;18.040;2024-02-28T03:51:18;5.43;;;3.90;;
50379;SDS011;37474;59.468;18.040;2024-02-28T03:53:46;6.35;;;4.13;;
50379;SDS011;37474;59.468;18.040;2024-02-28T03:56:21;5.20;;;3.83;;
50379;SDS011;37474;59.468;18.040;2024-02-28T03:58:52;5.37;;;3.93;;
50379;SDS011;37474;59.468;18.040;2024-02-28T04:01:20;5.43;;;3.83;;
50379;SDS011;37474;59.468;18.040;2024-02-28T04:03:48;4.83;;;3.77;;
50379;SDS011;37474;59.468;18.040;2024-02-28T04:06:17;5.03;;;4.00;;
50379;SDS011;37474;59.468;18.040;2024-02-28T04:08:45;6.50;;;3.43;;
50379;SDS011;37474;59.468;18.040;2024-02-28T04:11:14;6.10;;;3.93;;
50379;SDS011;37474;59.468;18.040;2024-02-28T04:13:42;5.77;;;3.60;;
50379;SDS011;37474;59.468;18.040;2024-02-28T04:16:10;6.23;;;4.00;;
50379;SDS011;37474;59.468;18.040;2024-02-28T04:18:38;6.63;;;3.80;;
50379;SDS011;37474;59.468;18.040;2024-02-28T04:21:06;5.03;;;3.80;;
50379;SDS011;37474;59.468;18.040;2024-02-28T04:23:36;5.30;;;3.43;;
50379;SDS011;37474;59.468;18.040;2024-02-28T04:26:04;5.00;;;3.72;;
50379;SDS011;37474;59.468;18.040;2024-02-28T04:28:32;4.33;;;3.63;;
50379;SDS011;37474;59.468;18.040;2024-02-28T04:31:00;5.30;;;4.03;;
50379;SDS011;37474;59.468;18.040;2024-02-28T04:33:28;4.13;;;3.63;;
50379;SDS011;37474;59.468;18.040;2024-02-28T04:35:57;4.93;;;3.53;;
50379;SDS011;37474;59.468;18.040;2024-02-28T04:38:25;5.37;;;4.17;;
50379;SDS011;37474;59.468;18.040;2024-02-28T04:40:54;4.53;;;3.50;;
50379;SDS011;37474;59.468;18.040;2024-02-28T04:43:22;5.50;;;3.53;;
50379;SDS011;37474;59.468;18.040;2024-02-28T04:45:50;4.70;;;3.70;;
50379;SDS011;37474;59.468;18.040;2024-02-28T04:48:18;3.93;;;3.30;;
50379;SDS011;37474;59.468;18.040;2024-02-28T04:50:46;4.30;;;3.63;;
50379;SDS011;37474;59.468;18.040;2024-02-28T04:53:14;4.67;;;3.60;;
50379;SDS011;37474;59.468;18.040;2024-02-28T04:55:42;6.03;;;3.97;;
50379;SDS011;37474;59.468;18.040;2024-02-28T04:58:12;5.03;;;3.87;;
50379;SDS011;37474;59.468;18.040;2024-02-28T05:00:40;4.45;;;3.45;;
50379;SDS011;37474;59.468;18.040;2024-02-28T05:03:08;4.70;;;3.67;;
50379;SDS011;37474;59.468;18.040;2024-02-28T05:05:36;4.77;;;3.73;;
50379;SDS011;37474;59.468;18.040;2024-02-28T05:08:05;5.87;;;3.83;;
50379;SDS011;37474;59.468;18.040;2024-02-28T05:10:33;5.87;;;4.07;;
50379;SDS011;37474;59.468;18.040;2024-02-28T05:13:01;5.40;;;3.60;;
50379;SDS011;37474;59.468;18.040;2024-02-28T05:15:31;4.40;;;3.73;;
50379;SDS011;37474;59.468;18.040;2024-02-28T05:17:59;7.20;;;4.03;;
50379;SDS011;37474;59.468;18.040;2024-02-28T05:20:27;5.77;;;4.07;;
50379;SDS011;37474;59.468;18.040;2024-02-28T05:22:57;5.03;;;3.80;;
50379;SDS011;37474;59.468;18.040;2024-02-28T05:25:25;6.20;;;4.07;;
50379;SDS011;37474;59.468;18.040;2024-02-28T05:27:53;5.57;;;4.20;;
50379;SDS011;37474;59.468;18.040;2024-02-28T05:30:22;5.97;;;4.40;;
50379;SDS011;37474;59.468;18.040;2024-02-28T05:32:51;6.10;;;4.13;;
50379;SDS011;37474;59.468;18.040;2024-02-28T05:35:19;6.05;;;3.92;;
50379;SDS011;37474;59.468;18.040;2024-02-28T05:37:47;5.90;;;3.97;;
50379;SDS011;37474;59.468;18.040;2024-02-28T05:40:23;5.67;;;3.97;;
50379;SDS011;37474;59.468;18.040;2024-02-28T05:42:50;5.95;;;4.07;;
50379;SDS011;37474;59.468;18.040;2024-02-28T05:45:18;6.43;;;3.90;;
50379;SDS011;37474;59.468;18.040;2024-02-28T05:47:46;4.87;;;3.67;;
50379;SDS011;37474;59.468;18.040;2024-02-28T05:50:16;6.00;;;3.80;;
50379;SDS011;37474;59.468;18.040;2024-02-28T05:52:44;5.10;;;4.47;;
50379;SDS011;37474;59.468;18.040;2024-02-28T05:55:12;5.10;;;4.07;;
50379;SDS011;37474;59.468;18.040;2024-02-28T05:57:40;6.40;;;4.10;;
50379;SDS011;37474;59.468;18.040;2024-02-28T06:00:09;6.17;;;4.13;;
50379;SDS011;37474;59.468;18.040;2024-02-28T06:02:38;5.33;;;4.00;;
50379;SDS011;37474;59.468;18.040;2024-02-28T06:05:06;4.53;;;3.67;;
50379;SDS011;37474;59.468;18.040;2024-02-28T06:07:36;5.93;;;4.63;;
50379;SDS011;37474;59.468;18.040;2024-02-28T06:10:04;5.90;;;4.15;;
50379;SDS011;37474;59.468;18.040;2024-02-28T06:12:32;5.37;;;4.07;;
50379;SDS011;37474;59.468;18.040;2024-02-28T06:15:00;5.87;;;3.90;;
50379;SDS011;37474;59.468;18.040;2024-02-28T06:17:29;5.70;;;4.50;;
50379;SDS011;37474;59.468;18.040;2024-02-28T06:20:02;5.33;;;4.17;;
50379;SDS011;37474;59.468;18.040;2024-02-28T06:22:36;5.17;;;3.83;;
50379;SDS011;37474;59.468;18.040;2024-02-28T06:25:04;6.10;;;4.25;;
50379;SDS011;37474;59.468;18.040;2024-02-28T06:27:40;4.80;;;3.47;;
50379;SDS011;37474;59.468;18.040;2024-02-28T06:30:08;5.63;;;4.13;;
50379;SDS011;37474;59.468;18.040;2024-02-28T06:32:36;7.37;;;4.20;;
50379;SDS011;37474;59.468;18.040;2024-02-28T06:35:05;7.63;;;4.37;;
50379;SDS011;37474;59.468;18.040;2024-02-28T06:37:36;5.70;;;4.25;;
50379;SDS011;37474;59.468;18.040;2024-02-28T06:40:04;6.27;;;4.07;;
50379;SDS011;37474;59.468;18.040;2024-02-28T06:42:35;5.00;;;3.80;;
50379;SDS011;37474;59.468;18.040;2024-02-28T06:45:04;7.83;;;4.23;;
50379;SDS011;37474;59.468;18.040;2024-02-28T06:47:33;5.85;;;4.18;;
50379;SDS011;37474;59.468;18.040;2024-02-28T06:50:03;7.50;;;4.37;;
50379;SDS011;37474;59.468;18.040;2024-02-28T06:52:32;5.77;;;3.77;;
50379;SDS011;37474;59.468;18.040;2024-02-28T06:55:02;5.27;;;3.83;;
50379;SDS011;37474;59.468;18.040;2024-02-28T06:57:36;5.57;;;3.97;;
50379;SDS011;37474;59.468;18.040;2024-02-28T07:00:06;10.03;;;4.57;;
50379;SDS011;37474;59.468;18.040;2024-02-28T07:02:35;6.53;;;3.97;;
50379;SDS011;37474;59.468;18.040;2024-02-28T07:05:04;4.27;;;3.73;;
50379;SDS011;37474;59.468;18.040;2024-02-28T07:07:33;5.87;;;4.20;;
50379;SDS011;37474;59.468;18.040;2024-02-28T07:10:03;5.63;;;3.87;;
50379;SDS011;37474;59.468;18.040;2024-02-28T07:12:32;6.40;;;4.23;;
50379;SDS011;37474;59.468;18.040;2024-02-28T07:15:00;6.57;;;3.90;;
50379;SDS011;37474;59.468;18.040;2024-02-28T07:17:28;5.13;;;3.70;;
50379;SDS011;37474;59.468;18.040;2024-02-28T07:19:56;6.80;;;4.00;;
50379;SDS011;37474;59.468;18.040;2024-02-28T07:22:24;4.77;;;3.53;;
50379;SDS011;37474;59.468;18.040;2024-02-28T07:24:52;4.80;;;3.67;;
50379;SDS011;37474;59.468;18.040;2024-02-28T07:27:23;6.17;;;3.53;;
50379;SDS011;37474;59.468;18.040;2024-02-28T07:29:51;4.82;;;3.50;;
50379;SDS011;37474;59.468;18.040;2024-02-28T07:32:19;5.57;;;3.63;;
50379;SDS011;37474;59.468;18.040;2024-02-28T07:34:47;6.67;;;3.40;;
50379;SDS011;37474;59.468;18.040;2024-02-28T07:37:15;5.47;;;3.60;;
50379;SDS011;37474;59.468;18.040;2024-02-28T07:39:44;7.27;;;3.73;;
50379;SDS011;37474;59.468;18.040;2024-02-28T07:42:14;5.00;;;3.70;;
50379;SDS011;37474;59.468;18.040;2024-02-28T07:44:43;6.47;;;3.40;;
50379;SDS011;37474;59.468;18.040;2024-02-28T07:47:11;5.18;;;3.50;;
50379;SDS011;37474;59.468;18.040;2024-02-28T07:49:41;4.67;;;3.63;;
50379;SDS011;37474;59.468;18.040;2024-02-28T07:52:10;4.55;;;3.42;;
50379;SDS011;37474;59.468;18.040;2024-02-28T07:54:41;4.53;;;3.40;;
50379;SDS011;37474;59.468;18.040;2024-02-28T07:57:09;4.50;;;3.50;;
50379;SDS011;37474;59.468;18.040;2024-02-28T07:59:38;5.30;;;3.50;;
50379;SDS011;37474;59.468;18.040;2024-02-28T08:02:08;5.20;;;3.40;;
50379;SDS011;37474;59.468;18.040;2024-02-28T08:04:38;5.00;;;2.93;;
50379;SDS011;37474;59.468;18.040;2024-02-28T08:07:08;4.33;;;3.27;;
50379;SDS011;37474;59.468;18.040;2024-02-28T08:09:36;4.85;;;3.50;;
50379;SDS011;37474;59.468;18.040;2024-02-28T08:12:04;3.50;;;2.83;;
50379;SDS011;37474;59.468;18.040;2024-02-28T08:14:32;5.70;;;3.27;;
50379;SDS011;37474;59.468;18.040;2024-02-28T08:17:00;7.13;;;3.20;;
50379;SDS011;37474;59.468;18.040;2024-02-28T08:19:30;4.20;;;2.80;;
50379;SDS011;37474;59.468;18.040;2024-02-28T08:21:58;3.23;;;2.80;;
50379;SDS011;37474;59.468;18.040;2024-02-28T08:24:27;5.77;;;2.97;;
50379;SDS011;37474;59.468;18.040;2024-02-28T08:26:55;5.13;;;3.10;;
50379;SDS011;37474;59.468;18.040;2024-02-28T08:29:23;3.47;;;2.70;;
50379;SDS011;37474;59.468;18.040;2024-02-28T08:31:51;4.90;;;3.03;;
50379;SDS011;37474;59.468;18.040;2024-02-28T08:34:19;5.20;;;3.10;;
50379;SDS011;37474;59.468;18.040;2024-02-28T08:36:48;6.27;;;2.50;;
50379;SDS011;37474;59.468;18.040;2024-02-28T08:39:16;5.03;;;3.10;;
50379;SDS011;37474;59.468;18.040;2024-02-28T08:41:45;5.10;;;2.90;;
50379;SDS011;37474;59.468;18.040;2024-02-28T08:44:13;4.00;;;2.57;;
50379;SDS011;37474;59.468;18.040;2024-02-28T08:46:41;4.97;;;2.87;;
50379;SDS011;37474;59.468;18.040;2024-02-28T08:49:09;3.97;;;2.60;;
50379;SDS011;37474;59.468;18.040;2024-02-28T08:51:37;5.93;;;3.40;;
50379;SDS011;37474;59.468;18.040;2024-02-28T08:54:08;4.13;;;2.70;;
50379;SDS011;37474;59.468;18.040;2024-02-28T08:56:36;4.18;;;2.53;;
50379;SDS011;37474;59.468;18.040;2024-02-28T08:59:12;5.43;;;3.60;;
50379;SDS011;37474;59.468;18.040;2024-02-28T09:01:40;3.30;;;2.80;;
50379;SDS011;37474;59.468;18.040;2024-02-28T09:04:08;3.50;;;2.63;;
50379;SDS011;37474;59.468;18.040;2024-02-28T09:06:36;4.73;;;2.80;;
50379;SDS011;37474;59.468;18.040;2024-02-28T09:09:04;3.90;;;2.50;;
50379;SDS011;37474;59.468;18.040;2024-02-28T09:11:36;4.07;;;2.50;;
50379;SDS011;37474;59.468;18.040;2024-02-28T09:14:04;4.03;;;2.40;;
50379;SDS011;37474;59.468;18.040;2024-02-28T09:16:32;6.73;;;2.80;;
50379;SDS011;37474;59.468;18.040;2024-02-28T09:19:00;5.30;;;2.73;;
50379;SDS011;37474;59.468;18.040;2024-02-28T09:21:29;6.47;;;2.50;;
50379;SDS011;37474;59.468;18.040;2024-02-28T09:23:57;5.03;;;2.40;;
50379;SDS011;37474;59.468;18.040;2024-02-28T09:26:25;6.43;;;2.50;;
50379;SDS011;37474;59.468;18.040;2024-02-28T09:28:54;3.33;;;2.60;;
50379;SDS011;37474;59.468;18.040;2024-02-28T09:31:22;3.53;;;2.22;;
50379;SDS011;37474;59.468;18.040;2024-02-28T09:33:50;3.60;;;2.40;;
50379;SDS011;37474;59.468;18.040;2024-02-28T09:36:19;3.90;;;2.33;;
50379;SDS011;37474;59.468;18.040;2024-02-28T09:38:47;6.40;;;2.70;;
50379;SDS011;37474;59.468;18.040;2024-02-28T09:41:15;3.27;;;2.50;;
50379;SDS011;37474;59.468;18.040;2024-02-28T09:43:43;3.70;;;2.10;;
50379;SDS011;37474;59.468;18.040;2024-02-28T09:48:43;3.23;;;2.03;;
50379;SDS011;37474;59.468;18.040;2024-02-28T09:51:17;4.13;;;2.17;;
50379;SDS011;37474;59.468;18.040;2024-02-28T09:53:47;4.03;;;2.13;;
50379;SDS011;37474;59.468;18.040;2024-02-28T09:56:15;4.00;;;2.27;;
50379;SDS011;37474;59.468;18.040;2024-02-28T09:58:43;3.27;;;2.50;;
50379;SDS011;37474;59.468;18.040;2024-02-28T10:01:12;4.30;;;2.40;;
50379;SDS011;37474;59.468;18.040;2024-02-28T10:03:44;4.23;;;2.40;;
50379;SDS011;37474;59.468;18.040;2024-02-28T10:06:13;4.57;;;2.10;;
50379;SDS011;37474;59.468;18.040;2024-02-28T10:08:42;5.83;;;2.50;;
50379;SDS011;37474;59.468;18.040;2024-02-28T10:11:17;3.40;;;2.20;;
50379;SDS011;37474;59.468;18.040;2024-02-28T10:13:47;3.83;;;2.63;;
50379;SDS011;37474;59.468;18.040;2024-02-28T10:16:17;5.90;;;2.70;;
50379;SDS011;37474;59.468;18.040;2024-02-28T10:18:45;3.45;;;2.47;;
50379;SDS011;37474;59.468;18.040;2024-02-28T10:21:13;4.30;;;2.40;;
50379;SDS011;37474;59.468;18.040;2024-02-28T10:23:43;3.00;;;2.30;;
50379;SDS011;37474;59.468;18.040;2024-02-28T10:26:12;2.27;;;1.97;;
50379;SDS011;37474;59.468;18.040;2024-02-28T10:28:40;3.13;;;2.40;;
50379;SDS011;37474;59.468;18.040;2024-02-28T10:31:10;2.78;;;2.33;;
50379;SDS011;37474;59.468;18.040;2024-02-28T10:33:41;3.40;;;2.33;;
50379;SDS011;37474;59.468;18.040;2024-02-28T10:36:09;4.33;;;2.50;;
50379;SDS011;37474;59.468;18.040;2024-02-28T10:38:38;3.13;;;2.50;;
50379;SDS011;37474;59.468;18.040;2024-02-28T10:41:06;4.20;;;2.30;;
50379;SDS011;37474;59.468;18.040;2024-02-28T10:43:38;4.93;;;2.87;;
50379;SDS011;37474;59.468;18.040;2024-02-28T10:46:08;3.10;;;2.15;;
50379;SDS011;37474;59.468;18.040;2024-02-28T10:48:58;3.30;;;2.40;;
50379;SDS011;37474;59.468;18.040;2024-02-28T10:51:26;3.15;;;2.38;;
50379;SDS011;37474;59.468;18.040;2024-02-28T10:53:59;4.90;;;2.57;;
50379;SDS011;37474;59.468;18.040;2024-02-28T10:56:35;6.23;;;2.73;;
50379;SDS011;37474;59.468;18.040;2024-02-28T10:59:05;3.87;;;2.60;;
50379;SDS011;37474;59.468;18.040;2024-02-28T11:01:39;6.00;;;3.00;;
50379;SDS011;37474;59.468;18.040;2024-02-28T11:04:12;4.60;;;2.60;;
50379;SDS011;37474;59.468;18.040;2024-02-28T11:06:49;4.53;;;2.60;;
50379;SDS011;37474;59.468;18.040;2024-02-28T11:09:19;3.03;;;2.47;;
50379;SDS011;37474;59.468;18.040;2024-02-28T11:11:50;4.53;;;2.80;;
50379;SDS011;37474;59.468;18.040;2024-02-28T11:14:19;4.07;;;2.90;;
50379;SDS011;37474;59.468;18.040;2024-02-28T11:16:59;4.13;;;2.97;;
50379;SDS011;37474;59.468;18.040;2024-02-28T11:19:29;4.33;;;3.03;;
50379;SDS011;37474;59.468;18.040;2024-02-28T11:22:02;3.30;;;3.00;;
50379;SDS011;37474;59.468;18.040;2024-02-28T11:24:33;3.30;;;2.50;;
50379;SDS011;37474;59.468;18.040;2024-02-28T11:27:04;4.50;;;2.70;;
50379;SDS011;37474;59.468;18.040;2024-02-28T11:29:33;6.00;;;2.95;;
50379;SDS011;37474;59.468;18.040;2024-02-28T11:32:02;5.53;;;3.13;;
50379;SDS011;37474;59.468;18.040;2024-02-28T11:34:33;3.80;;;2.80;;
50379;SDS011;37474;59.468;18.040;2024-02-28T11:37:02;4.50;;;3.13;;
50379;SDS011;37474;59.468;18.040;2024-02-28T11:39:30;6.27;;;2.90;;
50379;SDS011;37474;59.468;18.040;2024-02-28T11:42:08;4.63;;;3.70;;
50379;SDS011;37474;59.468;18.040;2024-02-28T11:44:36;6.17;;;3.50;;
50379;SDS011;37474;59.468;18.040;2024-02-28T11:47:04;5.10;;;3.53;;
50379;SDS011;37474;59.468;18.040;2024-02-28T11:49:34;5.00;;;3.67;;
50379;SDS011;37474;59.468;18.040;2024-02-28T11:52:02;3.83;;;3.30;;
50379;SDS011;37474;59.468;18.040;2024-02-28T11:54:31;6.00;;;3.60;;
50379;SDS011;37474;59.468;18.040;2024-02-28T11:56:59;6.47;;;3.40;;
50379;SDS011;37474;59.468;18.040;2024-02-28T11:59:27;4.33;;;3.17;;
50379;SDS011;37474;59.468;18.040;2024-02-28T12:01:55;4.67;;;3.50;;
50379;SDS011;37474;59.468;18.040;2024-02-28T12:04:23;8.87;;;3.67;;
50379;SDS011;37474;59.468;18.040;2024-02-28T12:06:54;4.37;;;3.30;;
50379;SDS011;37474;59.468;18.040;2024-02-28T12:09:22;5.10;;;3.42;;
50379;SDS011;37474;59.468;18.040;2024-02-28T12:12:00;5.63;;;3.27;;
50379;SDS011;37474;59.468;18.040;2024-02-28T12:14:31;4.72;;;2.92;;
50379;SDS011;37474;59.468;18.040;2024-02-28T12:19:31;6.78;;;3.17;;
50379;SDS011;37474;59.468;18.040;2024-02-28T12:22:00;4.20;;;3.00;;
50379;SDS011;37474;59.468;18.040;2024-02-28T12:24:33;5.23;;;3.30;;
50379;SDS011;37474;59.468;18.040;2024-02-28T12:27:01;4.77;;;3.40;;
50379;SDS011;37474;59.468;18.040;2024-02-28T12:29:29;3.40;;;3.03;;
50379;SDS011;37474;59.468;18.040;2024-02-28T12:31:59;3.85;;;3.25;;
50379;SDS011;37474;59.468;18.040;2024-02-28T12:34:27;6.97;;;3.50;;
50379;SDS011;37474;59.468;18.040;2024-02-28T12:36:55;6.20;;;3.23;;
50379;SDS011;37474;59.468;18.040;2024-02-28T12:39:25;3.83;;;2.97;;
50379;SDS011;37474;59.468;18.040;2024-02-28T12:41:54;4.05;;;3.28;;
50379;SDS011;37474;59.468;18.040;2024-02-28T12:44:22;3.97;;;3.13;;
50379;SDS011;37474;59.468;18.040;2024-02-28T12:46:50;7.10;;;3.60;;
50379;SDS011;37474;59.468;18.040;2024-02-28T12:49:18;4.30;;;3.10;;
50379;SDS011;37474;59.468;18.040;2024-02-28T12:51:48;8.10;;;3.10;;
50379;SDS011;37474;59.468;18.040;2024-02-28T12:54:17;4.10;;;2.90;;
50379;SDS011;37474;59.468;18.040;2024-02-28T12:56:50;5.80;;;3.53;;
50379;SDS011;37474;59.468;18.040;2024-02-28T12:59:18;3.80;;;3.20;;
50379;SDS011;37474;59.468;18.040;2024-02-28T13:01:46;5.37;;;3.30;;
50379;SDS011;37474;59.468;18.040;2024-02-28T13:04:15;4.50;;;3.67;;
50379;SDS011;37474;59.468;18.040;2024-02-28T13:06:43;4.60;;;3.33;;
50379;SDS011;37474;59.468;18.040;2024-02-28T13:09:11;4.77;;;3.87;;
50379;SDS011;37474;59.468;18.040;2024-02-28T13:11:39;7.87;;;4.00;;
50379;SDS011;37474;59.468;18.040;2024-02-28T13:14:09;4.57;;;3.53;;
50379;SDS011;37474;59.468;18.040;2024-02-28T13:16:38;6.20;;;3.45;;
50379;SDS011;37474;59.468;18.040;2024-02-28T13:19:06;8.00;;;3.90;;
50379;SDS011;37474;59.468;18.040;2024-02-28T13:21:34;7.10;;;4.30;;
50379;SDS011;37474;59.468;18.040;2024-02-28T13:24:03;4.70;;;3.53;;
50379;SDS011;37474;59.468;18.040;2024-02-28T13:26:32;4.70;;;4.13;;
50379;SDS011;37474;59.468;18.040;2024-02-28T13:28:59;9.20;;;4.23;;
50379;SDS011;37474;59.468;18.040;2024-02-28T13:31:29;4.97;;;4.00;;
50379;SDS011;37474;59.468;18.040;2024-02-28T13:33:57;6.65;;;3.90;;
50379;SDS011;37474;59.468;18.040;2024-02-28T13:36:25;6.33;;;4.20;;
50379;SDS011;37474;59.468;18.040;2024-02-28T13:38:53;5.47;;;3.40;;
50379;SDS011;37474;59.468;18.040;2024-02-28T13:41:21;5.50;;;3.57;;
50379;SDS011;37474;59.468;18.040;2024-02-28T13:43:49;4.23;;;3.40;;
50379;SDS011;37474;59.468;18.040;2024-02-28T13:46:17;4.03;;;3.07;;
50379;SDS011;37474;59.468;18.040;2024-02-28T13:48:47;4.10;;;3.30;;
50379;SDS011;37474;59.468;18.040;2024-02-28T13:51:15;4.90;;;3.20;;
50379;SDS011;37474;59.468;18.040;2024-02-28T13:53:43;5.40;;;3.33;;
50379;SDS011;37474;59.468;18.040;2024-02-28T13:56:12;3.67;;;2.40;;
50379;SDS011;37474;59.468;18.040;2024-02-28T13:58:39;4.67;;;3.00;;
50379;SDS011;37474;59.468;18.040;2024-02-28T14:01:18;5.67;;;3.47;;
50379;SDS011;37474;59.468;18.040;2024-02-28T14:03:48;6.13;;;3.30;;
50379;SDS011;37474;59.468;18.040;2024-02-28T14:06:16;4.63;;;2.80;;
50379;SDS011;37474;59.468;18.040;2024-02-28T14:08:44;4.23;;;2.80;;
50379;SDS011;37474;59.468;18.040;2024-02-28T14:11:12;4.60;;;2.73;;
50379;SDS011;37474;59.468;18.040;2024-02-28T14:13:43;4.63;;;2.80;;
50379;SDS011;37474;59.468;18.040;2024-02-28T14:16:11;3.73;;;2.27;;
50379;SDS011;37474;59.468;18.040;2024-02-28T14:18:43;4.13;;;2.43;;
50379;SDS011;37474;59.468;18.040;2024-02-28T14:21:13;3.93;;;2.90;;
50379;SDS011;37474;59.468;18.040;2024-02-28T14:23:41;5.03;;;2.85;;
50379;SDS011;37474;59.468;18.040;2024-02-28T14:26:09;4.80;;;2.70;;
50379;SDS011;37474;59.468;18.040;2024-02-28T14:28:37;4.03;;;2.70;;
50379;SDS011;37474;59.468;18.040;2024-02-28T14:31:05;2.90;;;2.30;;
50379;SDS011;37474;59.468;18.040;2024-02-28T14:33:33;5.73;;;2.80;;
50379;SDS011;37474;59.468;18.040;2024-02-28T14:36:03;3.07;;;2.23;;
50379;SDS011;37474;59.468;18.040;2024-02-28T14:38:34;5.43;;;2.42;;
50379;SDS011;37474;59.468;18.040;2024-02-28T14:41:05;3.17;;;2.55;;
50379;SDS011;37474;59.468;18.040;2024-02-28T14:43:33;4.97;;;2.80;;
50379;SDS011;37474;59.468;18.040;2024-02-28T14:46:01;3.10;;;2.20;;
50379;SDS011;37474;59.468;18.040;2024-02-28T14:48:30;6.67;;;2.90;;